Time;durP1;ratioP1;P1;durP2;ratioP2;P2;SDS_P1;SDS_P2;PMS_P1;PMS_P2;Temp;Humidity;BMP_temperature;BMP_pressure;BME280_temperature;BME280_humidity;BME280_pressure;Samples;Min_cycle;Max_cycle;Signal;HPM_P1;HPM_P2
2023/06/28 00:01:30;;;;;;;10.98;9.07;;;21.50;68.20;;;;;;5029576;28;20028;-84
2023/06/28 00:03:57;;;;;;;10.32;8.77;;;21.50;68.20;;;;;;5042416;28;20029;-83
2023/06/28 00:06:23;;;;;;;12.10;8.95;;;21.50;68.30;;;;;;5023469;28;20104;-83
2023/06/28 00:08:49;;;;;;;11.90;8.90;;;21.50;68.40;;;;;;5042055;28;20052;-83
2023/06/28 00:11:15;;;;;;;11.00;9.02;;;21.50;68.50;;;;;;5035588;28;20032;-84
2023/06/28 00:13:41;;;;;;;14.35;8.60;;;21.50;68.60;;;;;;5044448;28;20116;-84
2023/06/28 00:16:07;;;;;;;10.35;8.70;;;21.50;68.70;;;;;;5057660;28;20123;-83
2023/06/28 00:18:37;;;;;;;9.60;8.48;;;21.40;68.60;;;;;;5038793;28;20061;-83
2023/06/28 00:21:03;;;;;;;10.25;8.95;;;21.40;68.60;;;;;;5047455;28;20036;-84
2023/06/28 00:23:40;;;;;;;9.95;8.90;;;21.40;68.70;;;;;;5046322;28;20507;-83
2023/06/28 00:26:07;;;;;;;9.77;8.77;;;21.40;68.80;;;;;;5053264;28;20124;-83
2023/06/28 00:28:33;;;;;;;9.60;8.48;;;21.40;68.90;;;;;;5028924;28;20036;-84
2023/06/28 00:31:03;;;;;;;11.68;8.82;;;21.40;68.90;;;;;;5031588;28;20083;-82
2023/06/28 00:33:29;;;;;;;9.13;8.05;;;21.40;69.10;;;;;;5043100;28;20036;-83
2023/06/28 00:35:55;;;;;;;9.52;8.40;;;21.40;69.10;;;;;;5036270;28;20029;-83
2023/06/28 00:38:22;;;;;;;10.63;8.77;;;21.40;69.20;;;;;;5041243;28;20355;-82
2023/06/28 00:40:52;;;;;;;9.05;8.15;;;21.40;69.80;;;;;;5050014;28;20410;-82
2023/06/28 00:43:18;;;;;;;9.52;7.68;;;21.30;69.10;;;;;;5026455;28;20430;-83
2023/06/28 00:45:48;;;;;;;11.88;8.48;;;21.30;69.20;;;;;;5039183;28;20121;-83
2023/06/28 00:48:16;;;;;;;11.13;7.90;;;21.30;69.20;;;;;;5042713;28;20417;-84
2023/06/28 00:50:44;;;;;;;9.05;7.80;;;21.30;69.30;;;;;;5045412;28;20247;-83
2023/06/28 00:53:14;;;;;;;10.48;9.25;;;21.30;69.30;;;;;;5046123;28;20029;-82
2023/06/28 00:55:40;;;;;;;10.18;8.57;;;21.30;69.30;;;;;;5046382;28;20044;-82
2023/06/28 00:58:07;;;;;;;10.45;8.55;;;21.30;69.30;;;;;;5030404;28;20037;-83
2023/06/28 01:00:33;;;;;;;8.85;7.38;;;21.30;69.40;;;;;;5040962;28;20051;-83
2023/06/28 01:03:02;;;;;;;8.90;7.88;;;21.30;69.40;;;;;;5037370;28;20442;-83
2023/06/28 01:05:32;;;;;;;10.05;7.97;;;21.30;69.50;;;;;;5041832;28;20032;-82
2023/06/28 01:07:58;;;;;;;8.00;6.75;;;21.30;69.60;;;;;;5030742;28;20060;-82
2023/06/28 01:10:28;;;;;;;9.23;8.05;;;21.30;69.60;;;;;;5042995;28;20381;-82
2023/06/28 01:12:57;;;;;;;8.80;7.90;;;21.30;69.70;;;;;;5039787;28;20142;-83
2023/06/28 01:15:25;;;;;;;9.80;7.60;;;21.30;69.70;;;;;;5041914;28;20067;-83
2023/06/28 01:17:52;;;;;;;9.57;7.28;;;21.30;69.70;;;;;;5031462;28;20029;-83
2023/06/28 01:20:18;;;;;;;8.88;7.30;;;21.20;69.60;;;;;;5052601;28;20052;-83
2023/06/28 01:22:54;;;;;;;10.88;7.38;;;21.20;69.60;;;;;;5028697;28;20063;-83
2023/06/28 01:25:30;;;;;;;9.43;7.95;;;21.20;69.80;;;;;;5035628;28;20040;-83
2023/06/28 01:27:59;;;;;;;8.73;7.20;;;21.20;69.60;;;;;;5052287;28;20047;-83
2023/06/28 01:30:26;;;;;;;8.38;7.15;;;21.20;69.70;;;;;;5024435;28;20037;-87
2023/06/28 01:32:53;;;;;;;7.72;7.00;;;21.20;69.80;;;;;;5053736;28;20072;-88
2023/06/28 01:35:22;;;;;;;10.20;8.25;;;21.20;69.90;;;;;;5050830;28;20037;-88
2023/06/28 01:37:51;;;;;;;7.72;6.68;;;21.20;69.90;;;;;;5053722;28;20063;-86
2023/06/28 01:40:19;;;;;;;8.85;7.55;;;21.20;70.00;;;;;;5042014;28;20040;-84
2023/06/28 01:42:46;;;;;;;8.05;6.88;;;21.20;70.10;;;;;;5058157;28;20036;-83
2023/06/28 01:45:13;;;;;;;8.07;7.18;;;21.20;70.10;;;;;;5045726;28;20090;-84
2023/06/28 01:47:39;;;;;;;9.00;7.50;;;21.10;70.00;;;;;;5064651;28;20396;-85
2023/06/28 01:50:07;;;;;;;8.05;6.88;;;21.20;70.20;;;;;;5044510;28;20033;-84
2023/06/28 01:52:35;;;;;;;8.35;7.00;;;21.10;70.00;;;;;;5032571;28;20025;-84
2023/06/28 01:55:04;;;;;;;8.55;6.60;;;21.20;70.30;;;;;;5058576;28;20110;-83
2023/06/28 01:57:31;;;;;;;8.60;7.57;;;21.20;70.30;;;;;;5031595;28;20063;-83
2023/06/28 01:59:57;;;;;;;7.35;6.53;;;21.10;70.10;;;;;;5045662;28;20042;-83
2023/06/28 02:02:32;;;;;;;8.27;7.47;;;21.20;70.30;;;;;;5033169;28;20025;-83
2023/06/28 02:05:01;;;;;;;9.35;7.15;;;21.20;70.40;;;;;;5055826;28;20036;-84
2023/06/28 02:07:27;;;;;;;10.15;7.72;;;21.20;70.40;;;;;;5027888;28;20642;-85
2023/06/28 02:09:59;;;;;;;9.70;8.68;;;21.10;70.30;;;;;;5043356;28;20106;-85
2023/06/28 02:12:25;;;;;;;8.82;7.93;;;21.20;70.40;;;;;;5025100;28;20028;-84
2023/06/28 02:14:55;;;;;;;9.50;8.48;;;21.20;70.50;;;;;;5047421;28;20492;-84
2023/06/28 02:17:21;;;;;;;10.68;8.35;;;21.20;70.50;;;;;;5046272;28;20028;-85
2023/06/28 02:19:48;;;;;;;12.65;9.65;;;21.10;70.40;;;;;;5059887;28;20048;-85
2023/06/28 02:22:15;;;;;;;11.02;9.05;;;21.10;70.40;;;;;;5058467;28;20036;-84
2023/06/28 02:24:42;;;;;;;11.23;8.80;;;21.10;70.40;;;;;;5047691;28;20415;-83
2023/06/28 02:27:09;;;;;;;12.18;9.93;;;21.10;70.50;;;;;;5049645;28;20060;-85
2023/06/28 02:29:35;;;;;;;11.95;8.60;;;21.10;70.50;;;;;;5030794;28;20037;-84
2023/06/28 02:32:04;;;;;;;11.48;9.57;;;21.10;70.50;;;;;;5040273;28;20052;-84
2023/06/28 02:34:31;;;;;;;11.93;9.35;;;21.10;70.60;;;;;;5013317;28;20033;-85
2023/06/28 02:36:58;;;;;;;13.32;9.75;;;21.10;70.60;;;;;;5044550;28;20341;-85
2023/06/28 02:39:28;;;;;;;11.35;9.15;;;21.10;70.70;;;;;;5041929;28;20033;-86
2023/06/28 02:41:54;;;;;;;10.20;9.05;;;21.10;70.70;;;;;;5047800;28;20029;-85
2023/06/28 02:44:23;;;;;;;11.02;9.60;;;21.10;70.80;;;;;;5055452;28;20056;-85
2023/06/28 02:46:50;;;;;;;11.43;9.55;;;21.10;70.80;;;;;;5057294;28;20335;-84
2023/06/28 02:49:16;;;;;;;11.43;9.52;;;21.10;70.80;;;;;;5038825;28;20139;-85
2023/06/28 02:51:43;;;;;;;11.05;9.57;;;21.10;71.40;;;;;;5059360;28;20043;-84
2023/06/28 02:54:13;;;;;;;10.55;9.30;;;21.10;70.90;;;;;;5044797;28;20460;-85
2023/06/28 02:56:40;;;;;;;10.88;9.57;;;21.10;70.90;;;;;;5047115;28;20021;-84
2023/06/28 02:59:39;;;;;;;11.63;9.88;;;21.10;71.00;;;;;;5054080;28;20577;-87
2023/06/28 03:02:06;;;;;;;11.88;10.00;;;21.10;70.90;;;;;;5046682;28;20086;-86
2023/06/28 03:04:32;;;;;;;11.70;9.68;;;21.10;71.00;;;;;;5036178;28;20029;-86
2023/06/28 03:07:01;;;;;;;12.48;9.93;;;21.10;71.00;;;;;;5030204;28;20029;-86
2023/06/28 03:09:28;;;;;;;11.13;9.00;;;21.00;70.90;;;;;;5031821;28;20041;-86
2023/06/28 03:11:55;;;;;;;11.52;9.57;;;21.00;70.90;;;;;;5021096;28;20193;-86
2023/06/28 03:14:21;;;;;;;10.88;9.60;;;21.00;71.00;;;;;;5049129;28;20029;-87
2023/06/28 03:16:47;;;;;;;10.48;9.40;;;21.00;71.00;;;;;;5029432;28;20028;-89
2023/06/28 03:19:14;;;;;;;10.90;9.65;;;21.00;71.10;;;;;;5041628;28;20076;-88
2023/06/28 03:21:44;;;;;;;12.40;9.90;;;21.00;71.00;;;;;;5021186;28;20037;-88
2023/06/28 03:24:11;;;;;;;12.77;9.68;;;21.00;71.00;;;;;;5034268;28;20040;-89
2023/06/28 03:26:38;;;;;;;10.63;9.50;;;21.00;71.10;;;;;;5052755;28;20028;-87
2023/06/28 03:29:11;;;;;;;;;;;21.00;71.10;;;;;;5046559;28;20130;-87
2023/06/28 03:31:37;;;;;;;11.02;8.52;;;21.00;71.00;;;;;;5030875;28;20343;-87
2023/06/28 03:34:05;;;;;;;9.85;8.77;;;21.00;70.90;;;;;;5042213;28;20041;-86
2023/06/28 03:36:34;;;;;;;10.38;9.25;;;21.00;70.90;;;;;;5040451;28;20043;-84
2023/06/28 03:39:03;;;;;;;9.95;8.93;;;21.00;71.00;;;;;;5029420;28;20033;-85
2023/06/28 03:41:32;;;;;;;10.57;8.93;;;21.00;71.10;;;;;;5049640;28;20240;-84
2023/06/28 03:43:58;;;;;;;12.88;9.35;;;21.00;71.10;;;;;;5048420;28;20020;-86
2023/06/28 03:46:26;;;;;;;10.93;8.85;;;21.00;71.70;;;;;;5049151;28;20052;-83
2023/06/28 03:48:53;;;;;;;11.45;9.80;;;21.00;71.20;;;;;;5035227;28;20025;-84
2023/06/28 03:51:20;;;;;;;10.05;9.02;;;21.00;71.20;;;;;;5039346;28;20407;-83
2023/06/28 03:53:49;;;;;;;10.98;9.20;;;21.00;71.30;;;;;;5042760;28;20147;-83
2023/06/28 03:56:16;;;;;;;10.13;9.13;;;21.00;71.30;;;;;;5034804;28;20032;-83
2023/06/28 03:58:42;;;;;;;11.07;8.82;;;21.10;71.50;;;;;;5032890;28;20189;-83
2023/06/28 04:01:08;;;;;;;11.65;8.32;;;21.10;71.60;;;;;;5044226;28;20017;-84
2023/06/28 04:03:34;;;;;;;10.93;8.45;;;21.10;71.60;;;;;;5041090;28;20078;-82
2023/06/28 04:05:59;;;;;;;9.07;7.65;;;21.10;71.60;;;;;;5038280;28;20093;-84
2023/06/28 04:08:26;;;;;;;9.80;8.70;;;21.10;71.60;;;;;;5044242;28;20388;-83
2023/06/28 04:10:54;;;;;;;10.05;8.77;;;21.10;71.60;;;;;;5045946;28;20029;-83
2023/06/28 04:13:20;;;;;;;9.18;7.75;;;21.10;71.60;;;;;;5047861;28;20033;-82
2023/06/28 04:15:46;;;;;;;10.02;8.90;;;21.10;71.60;;;;;;5050647;28;20071;-83
2023/06/28 04:18:12;;;;;;;11.93;8.23;;;21.10;71.60;;;;;;5039407;28;20094;-82
2023/06/28 04:20:39;;;;;;;11.45;8.98;;;21.10;71.60;;;;;;5049054;28;20181;-84
2023/06/28 04:23:05;;;;;;;9.38;7.35;;;21.10;71.70;;;;;;5033189;28;20788;-83
2023/06/28 04:25:31;;;;;;;9.98;8.30;;;21.10;71.70;;;;;;5027093;28;20291;-83
2023/06/28 04:27:58;;;;;;;8.80;7.75;;;21.10;71.80;;;;;;5040661;28;20028;-85
2023/06/28 04:30:24;;;;;;;11.20;8.10;;;21.10;71.80;;;;;;5057391;28;20034;-82
2023/06/28 04:32:50;;;;;;;9.93;7.60;;;21.10;71.80;;;;;;5057989;28;20084;-84
2023/06/28 04:35:17;;;;;;;9.07;7.53;;;21.10;71.80;;;;;;5053585;28;20566;-80
2023/06/28 04:37:43;;;;;;;9.23;7.57;;;21.10;71.80;;;;;;5043327;28;20033;-82
2023/06/28 04:40:10;;;;;;;8.80;7.57;;;21.10;71.90;;;;;;5049837;28;20041;-82
2023/06/28 04:42:36;;;;;;;8.90;7.30;;;21.10;72.00;;;;;;5032491;28;20029;-80
2023/06/28 04:45:02;;;;;;;8.23;7.35;;;21.20;72.30;;;;;;5048126;28;20041;-81
2023/06/28 04:47:28;;;;;;;8.82;7.55;;;21.10;72.30;;;;;;5026779;28;20028;-83
2023/06/28 04:49:54;;;;;;;8.60;6.50;;;21.10;72.30;;;;;;5055407;28;20025;-83
2023/06/28 04:52:22;;;;;;;9.07;7.97;;;21.10;72.50;;;;;;5045209;28;20504;-81
2023/06/28 04:54:49;;;;;;;8.13;6.82;;;21.20;72.70;;;;;;5046880;28;20060;-79
2023/06/28 04:57:17;;;;;;;10.30;7.28;;;21.10;72.60;;;;;;5046406;28;20032;-81
2023/06/28 04:59:43;;;;;;;10.90;7.05;;;21.20;72.90;;;;;;5042059;28;20481;-84
2023/06/28 05:02:09;;;;;;;10.07;7.88;;;21.20;73.00;;;;;;5043459;28;20328;-87
2023/06/28 05:04:39;;;;;;;10.10;7.18;;;21.20;73.10;;;;;;5051954;28;20596;-82
2023/06/28 05:07:06;;;;;;;10.13;7.30;;;21.20;73.10;;;;;;5023727;28;20052;-81
2023/06/28 05:09:34;;;;;;;11.48;8.07;;;21.20;73.20;;;;;;5054202;28;20495;-80
2023/06/28 05:12:01;;;;;;;13.43;8.93;;;21.20;73.50;;;;;;5051558;28;20035;-81
2023/06/28 05:14:28;;;;;;;12.55;8.70;;;21.20;73.90;;;;;;5040563;28;20032;-84
2023/06/28 05:16:55;;;;;;;12.75;9.02;;;21.20;74.30;;;;;;5051765;28;20037;-82
2023/06/28 05:19:22;;;;;;;11.00;8.38;;;21.30;74.80;;;;;;5053275;28;20492;-79
2023/06/28 05:21:49;;;;;;;11.00;7.65;;;21.30;75.20;;;;;;5053301;28;20522;-82
2023/06/28 05:24:16;;;;;;;10.05;8.05;;;21.30;75.40;;;;;;5056436;28;20036;-82
2023/06/28 05:26:43;;;;;;;11.52;8.48;;;21.40;75.80;;;;;;5057079;28;20027;-82
2023/06/28 05:29:09;;;;;;;10.27;8.07;;;21.40;75.90;;;;;;5054528;28;20075;-82
2023/06/28 05:31:38;;;;;;;10.15;7.28;;;21.50;76.20;;;;;;5058403;28;20135;-83
2023/06/28 05:34:04;;;;;;;8.60;7.53;;;21.50;76.50;;;;;;5053672;28;20041;-82
2023/06/28 05:36:34;;;;;;;8.65;7.63;;;21.50;76.50;;;;;;5049520;28;20476;-81
2023/06/28 05:39:00;;;;;;;9.82;8.48;;;21.50;76.60;;;;;;5055729;28;20044;-82
2023/06/28 05:41:26;;;;;;;9.52;8.18;;;21.60;76.80;;;;;;5040839;28;20151;-81
2023/06/28 05:43:52;;;;;;;8.20;7.20;;;21.60;76.90;;;;;;5047549;28;20033;-81
2023/06/28 05:46:18;;;;;;;9.55;7.43;;;21.70;77.10;;;;;;5049632;28;20127;-82
2023/06/28 05:48:46;;;;;;;11.63;8.77;;;21.60;76.90;;;;;;5045658;28;20400;-81
2023/06/28 05:51:14;;;;;;;9.18;7.95;;;21.70;77.10;;;;;;5048209;28;20028;-81
2023/06/28 05:53:41;;;;;;;9.90;7.57;;;21.70;77.10;;;;;;5044120;28;20053;-81
2023/06/28 05:56:08;;;;;;;9.73;7.43;;;21.70;77.10;;;;;;5038369;28;20054;-81
2023/06/28 05:58:34;;;;;;;10.48;8.20;;;21.80;77.30;;;;;;5051415;28;20036;-81
2023/06/28 06:01:01;;;;;;;9.63;7.22;;;21.80;77.40;;;;;;5050397;28;20036;-82
2023/06/28 06:03:26;;;;;;;8.88;6.82;;;21.80;77.30;;;;;;5047711;28;20132;-81
2023/06/28 06:05:55;;;;;;;9.50;7.25;;;21.80;77.30;;;;;;5064513;28;20661;-86
2023/06/28 06:08:22;;;;;;;10.50;7.88;;;21.90;77.50;;;;;;5052622;28;20535;-85
2023/06/28 06:10:48;;;;;;;8.48;7.68;;;21.90;77.30;;;;;;5043425;28;20025;-82
2023/06/28 06:13:14;;;;;;;10.05;6.95;;;21.90;77.20;;;;;;5043581;28;20044;-79
2023/06/28 06:15:40;;;;;;;9.25;7.22;;;21.90;77.10;;;;;;5050309;28;20036;-81
2023/06/28 06:18:06;;;;;;;9.43;6.95;;;21.90;77.00;;;;;;5045176;28;20553;-79
2023/06/28 06:20:33;;;;;;;9.05;6.85;;;22.00;77.20;;;;;;5053475;28;20036;-80
2023/06/28 06:22:59;;;;;;;9.45;6.95;;;21.90;76.90;;;;;;5054442;28;20033;-80
2023/06/28 06:25:26;;;;;;;8.52;7.05;;;21.90;76.80;;;;;;5035152;28;20667;-79
2023/06/28 06:27:52;;;;;;;8.48;7.45;;;21.90;76.70;;;;;;5044571;28;20056;-80
2023/06/28 06:30:18;;;;;;;9.23;7.43;;;22.00;76.90;;;;;;5052900;28;20082;-80
2023/06/28 06:32:43;;;;;;;10.60;7.47;;;22.00;76.80;;;;;;5024132;28;20132;-79
2023/06/28 06:35:09;;;;;;;10.20;7.88;;;22.00;76.60;;;;;;5026517;28;20040;-79
2023/06/28 06:37:35;;;;;;;7.50;6.70;;;22.00;76.50;;;;;;5021761;28;20056;-81
2023/06/28 06:40:02;;;;;;;9.50;6.25;;;22.00;76.40;;;;;;5014778;28;20875;-80
2023/06/28 06:42:28;;;;;;;9.20;6.90;;;22.00;76.30;;;;;;5036353;28;20033;-80
2023/06/28 06:44:53;;;;;;;8.00;6.57;;;22.00;76.20;;;;;;5025580;28;20040;-78
2023/06/28 06:47:19;;;;;;;7.63;6.90;;;22.10;76.20;;;;;;5031792;28;20033;-81
2023/06/28 06:49:45;;;;;;;9.27;6.82;;;22.10;76.10;;;;;;5032658;28;20033;-82
2023/06/28 06:52:11;;;;;;;9.40;7.30;;;22.20;76.10;;;;;;5029565;28;20051;-81
2023/06/28 06:54:37;;;;;;;8.80;6.75;;;22.20;75.90;;;;;;5025014;28;20044;-81
2023/06/28 06:57:05;;;;;;;8.43;6.47;;;22.30;75.90;;;;;;5029584;28;20029;-80
2023/06/28 06:59:32;;;;;;;7.85;6.80;;;22.40;75.80;;;;;;5023154;28;20453;-82
2023/06/28 07:01:58;;;;;;;9.52;6.70;;;22.40;75.50;;;;;;5028606;28;20408;-79
2023/06/28 07:04:24;;;;;;;9.93;6.93;;;22.60;75.50;;;;;;5048519;28;20045;-81
2023/06/28 07:06:50;;;;;;;7.05;6.10;;;22.70;75.20;;;;;;5027491;28;20040;-81
2023/06/28 07:09:18;;;;;;;7.72;6.68;;;22.80;75.00;;;;;;5031487;28;20445;-81
2023/06/28 07:11:46;;;;;;;8.40;7.07;;;22.90;74.90;;;;;;5031388;28;20102;-79
2023/06/28 07:14:12;;;;;;;9.02;7.07;;;23.00;74.70;;;;;;5025301;28;20056;-79
2023/06/28 07:16:39;;;;;;;9.15;6.88;;;23.00;74.40;;;;;;5023855;28;20033;-80
2023/06/28 07:19:06;;;;;;;8.65;7.45;;;23.10;74.40;;;;;;5023027;28;20033;-81
2023/06/28 07:21:35;;;;;;;12.18;7.63;;;23.10;74.20;;;;;;5025694;28;20030;-79
2023/06/28 07:24:00;;;;;;;9.27;7.45;;;23.10;74.10;;;;;;5022343;28;20249;-81
2023/06/28 07:26:27;;;;;;;8.57;7.28;;;23.20;74.10;;;;;;5002236;28;20044;-81
2023/06/28 07:28:54;;;;;;;9.48;7.10;;;23.10;73.80;;;;;;5034521;28;20539;-81
2023/06/28 07:31:20;;;;;;;7.57;6.55;;;23.20;73.90;;;;;;5037628;28;20041;-81
2023/06/28 07:33:47;;;;;;;8.20;7.15;;;23.10;73.60;;;;;;5035207;28;20040;-81
2023/06/28 07:36:13;;;;;;;8.05;7.22;;;23.20;73.70;;;;;;5040253;28;20036;-80
2023/06/28 07:38:40;;;;;;;8.10;7.30;;;23.20;74.20;;;;;;5040657;28;20511;-78
2023/06/28 07:41:07;;;;;;;8.02;7.25;;;23.20;73.50;;;;;;5039901;28;20085;-79
2023/06/28 07:43:38;;;;;;;7.82;7.03;;;23.30;73.50;;;;;;5040432;28;20302;-78
2023/06/28 07:46:04;;;;;;;8.05;7.25;;;23.30;73.40;;;;;;5022468;28;20044;-82
2023/06/28 07:48:30;;;;;;;9.68;7.60;;;23.30;73.30;;;;;;5021095;28;20029;-79
2023/06/28 07:50:56;;;;;;;7.50;6.72;;;23.30;73.20;;;;;;5048920;28;20044;-80
2023/06/28 07:53:22;;;;;;;8.68;7.25;;;23.40;73.20;;;;;;5032633;28;20485;-80
2023/06/28 07:55:52;;;;;;;12.77;7.75;;;23.40;73.20;;;;;;5049060;28;20135;-80
2023/06/28 07:58:19;;;;;;;7.82;7.07;;;23.40;73.00;;;;;;5037673;28;20043;-88
2023/06/28 08:00:45;;;;;;;9.25;8.05;;;23.50;73.00;;;;;;5039501;28;20048;-87
2023/06/28 08:03:14;;;;;;;8.90;7.32;;;23.50;72.80;;;;;;5036547;28;20407;-88
2023/06/28 08:05:40;;;;;;;8.73;7.65;;;23.50;72.60;;;;;;5029632;28;20458;-88
2023/06/28 08:08:06;;;;;;;9.07;7.97;;;23.60;72.60;;;;;;5033590;28;20599;-82
2023/06/28 08:10:33;;;;;;;11.50;8.77;;;23.60;72.50;;;;;;5033724;28;20430;-83
2023/06/28 08:12:59;;;;;;;10.63;8.77;;;23.60;72.30;;;;;;5048105;28;20029;-86
2023/06/28 08:15:25;;;;;;;9.52;8.23;;;23.60;72.30;;;;;;5038877;28;20036;-84
2023/06/28 08:17:51;;;;;;;8.68;7.88;;;23.60;72.20;;;;;;5051216;28;20121;-84
2023/06/28 08:20:17;;;;;;;9.35;8.27;;;23.70;72.20;;;;;;5045667;28;20072;-87
2023/06/28 08:22:43;;;;;;;9.30;8.32;;;23.70;72.10;;;;;;5045870;28;20596;-86
2023/06/28 08:25:12;;;;;;;8.95;8.05;;;23.80;72.10;;;;;;5038033;28;20032;-86
2023/06/28 08:27:38;;;;;;;10.50;8.15;;;23.80;71.90;;;;;;5037877;28;20358;-86
2023/06/28 08:30:05;;;;;;;9.80;8.82;;;23.80;71.70;;;;;;5035165;28;20028;-83
2023/06/28 08:32:32;;;;;;;8.80;7.90;;;23.90;71.70;;;;;;5044320;28;20079;-83
2023/06/28 08:34:58;;;;;;;10.43;9.35;;;24.00;71.70;;;;;;5035628;28;20036;-84
2023/06/28 08:37:24;;;;;;;9.50;8.00;;;24.00;71.50;;;;;;5037835;28;20123;-82
2023/06/28 08:39:50;;;;;;;10.98;8.43;;;24.00;71.30;;;;;;5037473;28;20076;-84
2023/06/28 08:42:18;;;;;;;9.75;8.75;;;24.00;71.20;;;;;;5041941;28;20054;-84
2023/06/28 08:44:51;;;;;;;9.32;8.43;;;24.10;71.20;;;;;;5010307;28;20233;-83
2023/06/28 08:47:30;;;;;;;9.90;8.85;;;24.00;71.00;;;;;;5043781;28;20047;-84
2023/06/28 08:49:57;;;;;;;10.00;9.00;;;24.00;70.90;;;;;;5027215;28;20029;-85
2023/06/28 08:52:23;;;;;;;15.55;9.35;;;24.00;70.90;;;;;;5045675;28;20389;-84
2023/06/28 08:54:52;;;;;;;10.52;9.00;;;24.00;70.80;;;;;;5037917;28;20510;-85
2023/06/28 08:57:19;;;;;;;9.15;8.25;;;24.00;70.80;;;;;;5038243;28;20504;-84
2023/06/28 08:59:46;;;;;;;10.82;8.82;;;24.00;70.80;;;;;;5022029;28;20048;-86
2023/06/28 09:02:19;;;;;;;9.18;8.07;;;24.10;70.80;;;;;;5048963;28;20064;-84
2023/06/28 09:04:48;;;;;;;10.50;9.27;;;24.10;70.60;;;;;;5051251;28;20079;-86
2023/06/28 09:07:17;;;;;;;10.35;9.35;;;24.20;70.60;;;;;;5020422;28;20139;-92
2023/06/28 09:09:47;;;;;;;10.77;8.20;;;24.30;70.50;;;;;;5034794;28;20082;-86
2023/06/28 09:12:15;;;;;;;8.73;7.90;;;24.40;70.40;;;;;;5044523;28;20031;-84
2023/06/28 09:14:41;;;;;;;10.40;9.25;;;24.50;70.30;;;;;;5045733;28;20395;-82
2023/06/28 09:17:08;;;;;;;10.50;9.20;;;24.50;70.10;;;;;;5037316;28;20078;-87
2023/06/28 09:19:36;;;;;;;16.80;9.75;;;24.60;70.10;;;;;;5042795;28;20054;-83
2023/06/28 09:22:04;;;;;;;10.18;8.93;;;24.60;69.90;;;;;;5025497;28;20400;-88
2023/06/28 09:24:34;;;;;;;9.20;8.30;;;24.70;70.00;;;;;;5047733;28;20033;-90
2023/06/28 09:27:05;;;;;;;10.80;8.15;;;24.70;69.90;;;;;;5049867;28;20115;-86
2023/06/28 09:29:31;;;;;;;9.43;8.48;;;24.70;69.80;;;;;;5049349;28;20080;-86
2023/06/28 09:32:00;;;;;;;9.20;8.30;;;24.70;69.80;;;;;;5036202;28;20056;-82
2023/06/28 09:34:26;;;;;;;9.73;8.73;;;24.70;69.60;;;;;;5024373;28;20048;-84
2023/06/28 09:36:56;;;;;;;9.40;8.50;;;24.70;69.60;;;;;;5035796;28;20062;-85
2023/06/28 09:39:24;;;;;;;9.35;8.43;;;24.70;69.40;;;;;;5042367;28;20078;-84
2023/06/28 09:42:03;;;;;;;10.48;8.73;;;24.80;69.50;;;;;;5033851;28;20079;-85
2023/06/28 09:44:54;;;;;;;9.75;8.65;;;24.90;69.50;;;;;;5046852;28;20037;-86
2023/06/28 09:47:32;;;;;;;9.27;8.38;;;25.00;69.30;;;;;;5029296;28;20451;-86
2023/06/28 09:50:02;;;;;;;8.80;7.90;;;25.20;69.10;;;;;;5044745;28;20048;-86
2023/06/28 09:52:35;;;;;;;9.73;8.05;;;25.30;68.70;;;;;;5030970;28;20036;-86
2023/06/28 09:55:03;;;;;;;11.57;9.27;;;25.40;68.40;;;;;;5051394;28;20090;-85
2023/06/28 09:57:30;;;;;;;10.88;9.07;;;25.60;68.20;;;;;;5059956;28;20041;-86
2023/06/28 10:00:07;;;;;;;9.50;8.70;;;25.60;68.00;;;;;;5020445;28;20264;-85
2023/06/28 10:02:58;;;;;;;10.82;9.63;;;25.70;67.90;;;;;;5053166;28;20056;-85
2023/06/28 10:05:33;;;;;;;9.27;8.35;;;25.70;67.80;;;;;;5027193;28;20037;-83
2023/06/28 10:08:16;;;;;;;10.13;9.13;;;25.80;67.70;;;;;;5052665;28;20035;-86
2023/06/28 10:10:53;;;;;;;;;;;25.80;67.50;;;;;;5057085;28;20037;-86
2023/06/28 10:13:29;;;;;;;9.13;8.23;;;25.90;67.40;;;;;;5049222;28;19960;-85
2023/06/28 10:16:11;;;;;;;10.48;9.48;;;26.00;67.30;;;;;;5055334;28;20287;-86
2023/06/28 10:18:50;;;;;;;9.07;8.23;;;26.10;67.10;;;;;;5034577;28;20235;-85
2023/06/28 10:21:20;;;;;;;9.15;8.20;;;26.10;66.90;;;;;;5041487;28;20119;-86
2023/06/28 10:23:49;;;;;;;8.82;7.85;;;26.20;66.80;;;;;;5048750;28;20094;-86
2023/06/28 10:26:19;;;;;;;9.57;8.57;;;26.30;66.50;;;;;;5019911;28;20543;-85
2023/06/28 10:28:58;;;;;;;9.23;8.15;;;26.50;66.20;;;;;;5054884;28;20032;-85
2023/06/28 10:31:25;;;;;;;10.27;8.63;;;26.70;65.90;;;;;;5053073;28;20076;-84
2023/06/28 10:33:53;;;;;;;9.82;8.25;;;26.90;65.60;;;;;;5032822;28;20036;-85
2023/06/28 10:36:37;;;;;;;9.40;8.57;;;27.10;65.30;;;;;;5053969;28;20106;-85
2023/06/28 10:39:10;;;;;;;9.13;8.23;;;27.20;65.00;;;;;;5040962;28;20114;-89
2023/06/28 10:41:39;;;;;;;13.45;8.57;;;27.30;64.80;;;;;;5012146;28;20047;-82
2023/06/28 10:44:06;;;;;;;8.73;7.82;;;27.50;64.50;;;;;;5034274;28;20041;-84
2023/06/28 10:46:44;;;;;;;9.48;8.48;;;27.80;64.20;;;;;;5044732;28;20044;-83
2023/06/28 10:49:20;;;;;;;8.77;7.93;;;28.40;63.50;;;;;;5036171;28;20640;-84
2023/06/28 10:51:53;;;;;;;7.32;6.35;;;28.90;62.40;;;;;;5053570;28;20416;-83
2023/06/28 10:54:22;;;;;;;7.90;7.10;;;29.40;61.50;;;;;;5014527;28;20040;-82
2023/06/28 10:56:50;;;;;;;7.72;7.00;;;29.70;60.90;;;;;;5045569;28;20040;-84
2023/06/28 10:59:26;;;;;;;7.72;6.80;;;29.90;60.50;;;;;;5047569;28;20307;-82
2023/06/28 11:01:54;;;;;;;8.20;7.38;;;30.00;60.10;;;;;;5047155;28;20032;-83
2023/06/28 11:04:25;;;;;;;8.90;7.97;;;30.00;59.90;;;;;;5053012;28;20040;-84
2023/06/28 11:07:02;;;;;;;8.68;7.30;;;30.10;59.80;;;;;;5053873;28;20029;-86
2023/06/28 11:10:14;;;;;;;7.55;6.78;;;30.10;59.60;;;;;;5044215;28;20043;-85
2023/06/28 11:12:52;;;;;;;8.32;7.57;;;30.10;59.40;;;;;;5051014;28;20299;-84
2023/06/28 11:15:28;;;;;;;8.23;7.15;;;30.20;59.50;;;;;;5045964;28;20084;-88
2023/06/28 11:18:11;;;;;;;8.30;7.47;;;30.20;59.20;;;;;;5036626;28;20156;-85
2023/06/28 11:20:53;;;;;;;7.93;7.22;;;30.30;59.00;;;;;;5051059;28;20120;-85
2023/06/28 11:23:40;;;;;;;8.07;7.38;;;30.40;58.90;;;;;;5060174;28;20161;-85
2023/06/28 11:26:33;;;;;;;7.65;6.95;;;30.50;58.50;;;;;;5049785;28;20036;-85
2023/06/28 11:29:19;;;;;;;7.25;6.55;;;30.80;58.20;;;;;;5041704;28;20388;-82
2023/06/28 11:31:47;;;;;;;7.45;6.75;;;30.90;57.80;;;;;;5037503;28;20063;-83
2023/06/28 11:34:14;;;;;;;7.82;7.13;;;31.00;57.70;;;;;;5040086;28;20072;-85
2023/06/28 11:36:42;;;;;;;7.68;6.88;;;30.90;57.50;;;;;;5037101;28;20047;-87
2023/06/28 11:39:28;;;;;;;7.50;6.80;;;30.80;57.50;;;;;;4941531;28;20134;-90
2023/06/28 11:42:02;;;;;;;8.60;7.80;;;30.80;57.60;;;;;;4952801;28;20047;-82
2023/06/28 11:44:48;;;;;;;8.15;7.35;;;30.70;57.60;;;;;;4951591;28;20121;-83
2023/06/28 11:47:27;;;;;;;7.50;6.80;;;30.50;57.50;;;;;;4939165;28;20027;-82
2023/06/28 11:49:56;;;;;;;8.05;7.25;;;30.40;57.70;;;;;;4952917;28;20082;-81
2023/06/28 11:52:29;;;;;;;8.38;7.60;;;30.30;57.80;;;;;;4948623;28;20039;-81
2023/06/28 11:55:04;;;;;;;8.57;7.65;;;30.20;57.80;;;;;;4940803;28;20034;-83
2023/06/28 11:57:44;;;;;;;8.38;7.57;;;30.10;57.80;;;;;;4938057;28;20475;-80
2023/06/28 12:00:38;;;;;;;8.35;7.55;;;30.00;57.80;;;;;;4952225;28;20082;-81
2023/06/28 12:03:30;;;;;;;7.55;6.82;;;29.90;57.90;;;;;;4973964;28;20114;-82
2023/06/28 12:05:57;;;;;;;9.40;8.50;;;29.80;57.90;;;;;;5038522;28;20090;-84
2023/06/28 12:08:23;;;;;;;9.35;7.32;;;29.70;57.90;;;;;;5047958;28;20066;-82
2023/06/28 12:10:52;;;;;;;7.10;6.40;;;29.60;57.80;;;;;;5041778;28;20033;-79
2023/06/28 12:13:23;;;;;;;7.28;6.65;;;29.70;57.80;;;;;;5048834;28;20060;-83
2023/06/28 12:15:49;;;;;;;7.75;7.05;;;29.70;57.70;;;;;;5023224;28;20197;-83
2023/06/28 12:18:15;;;;;;;7.38;6.70;;;29.80;57.60;;;;;;5021171;28;20035;-83
2023/06/28 12:20:41;;;;;;;8.93;7.28;;;30.00;57.40;;;;;;5033101;28;20110;-80
2023/06/28 12:23:13;;;;;;;7.55;6.82;;;30.20;57.10;;;;;;5039762;28;20500;-84
2023/06/28 12:25:44;;;;;;;7.35;6.50;;;30.40;56.70;;;;;;5041449;28;20500;-84
2023/06/28 12:28:14;;;;;;;6.97;6.35;;;30.60;56.50;;;;;;5040497;28;20029;-84
2023/06/28 12:30:42;;;;;;;7.68;6.70;;;30.80;56.20;;;;;;5034898;28;20109;-83
2023/06/28 12:33:09;;;;;;;6.47;5.88;;;30.80;56.10;;;;;;5037242;28;20045;-83
2023/06/28 12:35:46;;;;;;;7.03;6.43;;;30.80;56.00;;;;;;5043444;28;20025;-82
2023/06/28 12:38:17;;;;;;;7.43;6.72;;;30.80;55.80;;;;;;5047494;28;20094;-82
2023/06/28 12:40:45;;;;;;;6.90;6.20;;;30.80;55.80;;;;;;5043543;28;20037;-82
2023/06/28 12:43:13;;;;;;;7.72;7.03;;;30.80;55.80;;;;;;5039436;28;20164;-84
2023/06/28 12:45:49;;;;;;;8.02;7.32;;;30.80;55.80;;;;;;5049883;28;20467;-84
2023/06/28 12:48:21;;;;;;;7.88;6.85;;;30.80;55.70;;;;;;5031604;28;20123;-83
2023/06/28 12:50:48;;;;;;;6.97;6.35;;;30.80;55.70;;;;;;5049072;28;20692;-84
2023/06/28 12:53:14;;;;;;;7.07;6.38;;;30.70;55.70;;;;;;5036285;28;20415;-83